createdAt,value
2023-01-21T00:06:15.367Z,16.60
2023-01-21T00:16:19.123Z,17.20
2023-01-21T00:26:23.314Z,16.50
2023-01-21T00:36:29.997Z,14.50
2023-01-21T00:46:34.153Z,15.60
2023-01-21T00:56:37.910Z,16.60
2023-01-21T01:06:41.759Z,13.40
2023-01-21T01:16:47.175Z,16.90
2023-01-21T01:26:50.782Z,16.10
2023-01-21T01:36:54.486Z,16.30
2023-01-21T01:47:03.529Z,15.80
2023-01-21T01:57:10.658Z,19.80
2023-01-21T02:07:16.919Z,18.80
2023-01-21T02:17:38.933Z,19.40
2023-01-21T02:28:27.343Z,23.90
2023-01-21T02:39:12.604Z,22.70
2023-01-21T02:49:45.464Z,26.60
2023-01-21T02:59:53.752Z,25.00
2023-01-21T03:10:06.935Z,22.70
2023-01-21T03:20:32.403Z,23.90
2023-01-21T03:30:40.774Z,23.80
2023-01-21T03:41:05.489Z,22.30
2023-01-21T03:51:15.416Z,20.30
2023-01-21T04:01:19.626Z,19.30
2023-01-21T04:11:23.482Z,19.60
2023-01-21T04:21:27.169Z,22.50
2023-01-21T04:31:30.968Z,19.00
2023-01-21T04:41:34.871Z,17.70
2023-01-21T04:51:39.702Z,17.50
2023-01-21T05:01:43.293Z,19.90
2023-01-21T05:11:47.588Z,18.10
2023-01-21T05:21:51.367Z,16.90
2023-01-21T05:31:55.078Z,16.30
2023-01-21T05:41:58.917Z,15.60
2023-01-21T05:52:02.651Z,14.30
2023-01-21T06:02:08.031Z,16.20
2023-01-21T06:12:13.483Z,14.40
2023-01-21T06:22:18.951Z,13.60
2023-01-21T06:32:23.188Z,14.90
2023-01-21T06:42:27.114Z,12.50
2023-01-21T06:52:32.878Z,13.30
2023-01-21T07:02:39.568Z,11.90
2023-01-21T07:12:43.314Z,13.40
2023-01-21T07:22:46.939Z,15.20
2023-01-21T07:32:50.918Z,10.90
2023-01-21T07:42:57.681Z,10.50
2023-01-21T07:53:02.337Z,9.70
2023-01-21T08:03:06.322Z,10.70
2023-01-21T08:13:10.110Z,11.90
2023-01-21T08:23:38.625Z,9.30
2023-01-21T08:33:44.676Z,9.00
2023-01-21T08:43:50.688Z,6.40
2023-01-21T08:53:55.521Z,5.60
2023-01-21T09:04:01.635Z,6.00
2023-01-21T09:14:05.353Z,4.30
2023-01-21T09:24:10.650Z,4.00
2023-01-21T09:34:14.749Z,2.70
2023-01-21T09:44:35.110Z,2.70
2023-01-21T09:54:42.478Z,5.40
2023-01-21T10:04:54.312Z,4.60
2023-01-21T10:15:07.204Z,2.70
2023-01-21T10:25:18.910Z,2.80
2023-01-21T10:35:41.845Z,3.20
2023-01-21T10:46:05.455Z,5.50
2023-01-21T10:56:29.468Z,5.70
2023-01-21T11:06:35.650Z,6.60
2023-01-21T11:16:53.023Z,4.70
2023-01-21T11:27:01.469Z,5.10
2023-01-21T11:37:26.849Z,6.40
2023-01-21T11:47:54.111Z,5.90
2023-01-21T11:58:03.689Z,6.00
2023-01-21T12:08:41.802Z,5.60
2023-01-21T12:19:07.005Z,4.20
2023-01-21T12:29:40.348Z,7.60
2023-01-21T12:40:02.910Z,13.50
2023-01-21T12:50:30.082Z,8.10
2023-01-21T13:00:41.815Z,7.60
2023-01-21T13:10:52.993Z,8.50
2023-01-21T13:21:15.393Z,8.90
2023-01-21T13:31:47.756Z,10.90
2023-01-21T13:42:39.015Z,10.20
2023-01-21T13:53:16.594Z,10.80
2023-01-21T14:03:52.509Z,9.50
2023-01-21T14:14:17.628Z,10.40
2023-01-21T14:24:38.485Z,10.80
2023-01-21T14:35:15.481Z,24.40
2023-01-21T14:45:56.096Z,38.60
2023-01-21T14:56:21.996Z,18.20
2023-01-21T15:06:47.466Z,12.10
2023-01-21T15:18:06.943Z,25.70
2023-01-21T15:28:40.664Z,9.40
2023-01-21T15:38:44.465Z,10.80
2023-01-21T15:49:17.089Z,10.70
2023-01-21T15:59:36.108Z,11.10
2023-01-21T16:10:03.963Z,12.10
2023-01-21T16:20:11.671Z,11.70
2023-01-21T16:30:19.762Z,12.30
2023-01-21T16:40:30.759Z,11.40
2023-01-21T16:50:34.484Z,12.00
2023-01-21T17:00:38.230Z,16.40
2023-01-21T17:11:08.205Z,9.90
2023-01-21T17:21:49.950Z,15.50
2023-01-21T17:32:01.496Z,19.90
2023-01-21T17:42:05.446Z,20.60
2023-01-21T17:52:22.732Z,9.50
2023-01-21T18:02:26.615Z,11.00
2023-01-21T18:12:30.754Z,9.90
2023-01-21T18:22:36.221Z,10.60
2023-01-21T18:32:42.550Z,12.40
2023-01-21T18:42:47.106Z,11.90
2023-01-21T18:52:51.095Z,12.20
2023-01-21T19:02:56.887Z,14.60
2023-01-21T19:13:00.846Z,15.40
2023-01-21T19:23:07.455Z,17.90
2023-01-21T19:33:11.577Z,23.00
2023-01-21T19:43:18.169Z,14.50
2023-01-21T19:53:23.306Z,18.10
2023-01-21T20:03:29.015Z,23.50
2023-01-21T20:13:37.115Z,17.60
2023-01-21T20:23:40.985Z,16.20
2023-01-21T20:33:47.154Z,15.10
2023-01-21T20:43:51.108Z,22.00
2023-01-21T20:53:56.499Z,14.50
2023-01-21T21:04:01.285Z,15.10
2023-01-21T21:14:05.073Z,16.10
2023-01-21T21:24:17.516Z,17.20
2023-01-21T21:34:27.768Z,14.70
2023-01-21T21:44:42.875Z,14.10
2023-01-21T21:54:55.555Z,14.60
2023-01-21T22:04:59.176Z,19.00
2023-01-21T22:15:04.156Z,17.60
2023-01-21T22:25:12.133Z,17.50
2023-01-21T22:35:16.130Z,20.50
2023-01-21T22:45:22.038Z,15.40
2023-01-21T22:55:26.058Z,15.60
2023-01-21T23:05:31.722Z,12.60
2023-01-21T23:15:43.464Z,15.40
2023-01-21T23:25:58.680Z,22.00
2023-01-21T23:36:13.431Z,12.40
2023-01-21T23:46:20.693Z,10.50
2023-01-21T23:56:26.690Z,11.40
